Language: 


Des rapports , des résumés tant et plus, au choix de chacun....


Données Historiques de Météogheer
Journalier Rapport pour Janvier 13, 2017 Unitée:  Les deux    Impériale   Métrique
Suivant Jour »
Journalier Hebdomadaire Mensuel Annuel Sur mesure
  Max: Min: Moyenne:
Température: 41.5 °F /  5.3 °C 32 °F /  0.0 °C 37.9 °F /  3.3 °C
Point de rosée: 39 °F /  3.9 °C 30.6 °F /  -0.8 °C 33.4 °F /  0.8 °C
Humidité: 98% 0% 84%
Vent: 24.2mph /  38.9km/h - 8.7mph /  14km/h
Rafales: 28.9mph /  46.5km/h - -
Vent- - West
Pression: 29.9 in /  1012.1 hPa 0 in /  0.0 hPa -
Pluie: 0.5 in /  12.7 mm    
Historical Graphs
 
 
Données tabulaires pour Janvier 13, 2017
Heure Température Point de rosée Pression Vent Vent Rafales Humidité Pluie Taux (Horaire) Conditions
00:02 36 °F /  2.2 °C 35.4 °F /  1.9 °C 29.2in /  989.1hPa NNE 12.1mph /  19.5km/h 28.6mph /  46.0km/h 98% 0in /  0.0mm
00:07 36.1 °F /  2.3 °C 35.8 °F /  2.1 °C 29.2in /  990.1hPa North 11mph /  17.7km/h 28.6mph /  46.0km/h 98% 0in /  0.0mm
00:12 36.1 °F /  2.3 °C 35.8 °F /  2.1 °C 29.2in /  990.1hPa North 11mph /  17.7km/h 23.5mph /  37.8km/h 98% 0in /  0.0mm
00:17 36.1 °F /  2.3 °C 35.8 °F /  2.1 °C 29.2in /  990.1hPa WNW 15.4mph /  24.8km/h 28.9mph /  46.5km/h 98% 0in /  0.0mm
00:22 36.7 °F /  2.6 °C 36.1 °F /  2.3 °C 29.3in /  991.1hPa North 22.4mph /  36.0km/h 28.9mph /  46.5km/h 98% 0in /  0.0mm
00:27 36.9 °F /  2.7 °C 36.3 °F /  2.4 °C 29.3in /  991.1hPa WNW 23.3mph /  37.5km/h 23.3mph /  37.5km/h 98% 0in /  0.0mm
00:32 36.9 °F /  2.7 °C 36 °F /  2.2 °C 29.3in /  991.1hPa WNW 20.4mph /  32.8km/h 23.3mph /  37.5km/h 97% 0in /  0.0mm
00:37 36.9 °F /  2.7 °C 36.1 °F /  2.3 °C 29.3in /  992.1hPa NE 6.5mph /  10.5km/h 22.8mph /  36.7km/h 97% 0in /  0.0mm
00:42 36.9 °F /  2.7 °C 36.1 °F /  2.3 °C 29.3in /  992.1hPa NW 19.9mph /  32.0km/h 22.6mph /  36.4km/h 97% 0in /  0.0mm
00:47 36.9 °F /  2.7 °C 36.1 °F /  2.3 °C 29.3in /  992.1hPa WNW 8.5mph /  13.7km/h 22.6mph /  36.4km/h 97% 0in /  0.0mm
00:52 36.9 °F /  2.7 °C 36.1 °F /  2.3 °C 29.3in /  993.1hPa WNW 7.8mph /  12.6km/h 19.9mph /  32.0km/h 97% 0in /  0.0mm
00:57 37 °F /  2.8 °C 36.3 °F /  2.4 °C 29.3in /  993.1hPa WNW 21.5mph /  34.6km/h 21.5mph /  34.6km/h 97% 0in /  0.0mm
01:02 37.2 °F /  2.9 °C 36.5 °F /  2.5 °C 29.3in /  993.1hPa WSW 12.5mph /  20.1km/h 21.5mph /  34.6km/h 97% 0in /  0.0mm
01:07 37.6 °F /  3.1 °C 36.7 °F /  2.6 °C 29.3in /  993.1hPa North 13.2mph /  21.2km/h 19.7mph /  31.7km/h 97% 0in /  0.0mm
01:12 37.6 °F /  3.1 °C 36.7 °F /  2.6 °C 29.3in /  993.1hPa West 12.5mph /  20.1km/h 23.5mph /  37.8km/h 97% 0in /  0.0mm
01:17 37.6 °F /  3.1 °C 36.7 °F /  2.6 °C 29.3in /  993.1hPa West 8.7mph /  14.0km/h 23.5mph /  37.8km/h 97% 0in /  0.0mm
01:22 37.6 °F /  3.1 °C 36.7 °F /  2.6 °C 29.4in /  994.1hPa SSW 17.2mph /  27.7km/h 24.4mph /  39.3km/h 97% 0in /  0.0mm
01:27 37.2 °F /  2.9 °C 36.3 °F /  2.4 °C 29.4in /  994.1hPa NNW 11mph /  17.7km/h 24.4mph /  39.3km/h 96% 0in /  0.0mm
01:32 37.6 °F /  3.1 °C 36.3 °F /  2.4 °C 29.4in /  994.1hPa NNW 10.5mph /  16.9km/h 20.4mph /  32.8km/h 96% 0.37in /  9.4mm
01:37 37.6 °F /  3.1 °C 36.7 °F /  2.6 °C 29.4in /  995.1hPa West 11.9mph /  19.1km/h 19.9mph /  32.0km/h 96% 0.37in /  9.4mm
01:42 37.6 °F /  3.1 °C 36.7 °F /  2.6 °C 29.4in /  995.1hPa WNW 14.3mph /  23.0km/h 22.1mph /  35.6km/h 96% 0.37in /  9.4mm
01:47 37.6 °F /  3.1 °C 36.7 °F /  2.6 °C 29.4in /  995.1hPa WSW 15.4mph /  24.8km/h 22.1mph /  35.6km/h 96% 0.37in /  9.4mm
01:52 37.6 °F /  3.1 °C 36.3 °F /  2.4 °C 29.4in /  994.1hPa West 14.1mph /  22.7km/h 23.3mph /  37.5km/h 96% 0.38in /  9.7mm
01:57 37.6 °F /  3.1 °C 36.1 °F /  2.3 °C 29.4in /  994.1hPa NW 12.8mph /  20.6km/h 23.3mph /  37.5km/h 95% 0.38in /  9.7mm
02:02 32 °F /  0.0 °C 36.1 °F /  2.3 °C 0in /  0.0hPa West 10.1mph /  16.3km/h 17.6mph /  28.3km/h 0% 0.38in /  9.7mm
02:07 37.6 °F /  3.1 °C 36.1 °F /  2.3 °C 29.4in /  995.1hPa West 10.7mph /  17.2km/h 17.7mph /  28.5km/h 95% 0.38in /  9.7mm
02:12 37.6 °F /  3.1 °C 36 °F /  2.2 °C 29.4in /  995.1hPa WNW 4.3mph /  6.9km/h 17.7mph /  28.5km/h 94% 0.38in /  9.7mm
02:17 37.6 °F /  3.1 °C 36 °F /  2.2 °C 29.4in /  995.1hPa North 15.4mph /  24.8km/h 19.9mph /  32.0km/h 94% 0.38in /  9.7mm
02:22 37.6 °F /  3.1 °C 35.6 °F /  2.0 °C 29.4in /  996.2hPa NW 17.7mph /  28.5km/h 27.5mph /  44.2km/h 93% 0.38in /  9.7mm
02:27 37.6 °F /  3.1 °C 35.4 °F /  1.9 °C 29.4in /  996.2hPa NNE 13.2mph /  21.2km/h 27.5mph /  44.2km/h 92% 0.38in /  9.7mm
02:32 37.6 °F /  3.1 °C 35.1 °F /  1.7 °C 29.4in /  996.2hPa WSW 10.7mph /  17.2km/h 17.2mph /  27.7km/h 90% 0.01in /  0.3mm
02:37 37.6 °F /  3.1 °C 34.7 °F /  1.5 °C 29.5in /  997.9hPa West 24.2mph /  38.9km/h 24.2mph /  38.9km/h 89% 0.01in /  0.3mm
02:42 37.6 °F /  3.1 °C 34.2 °F /  1.2 °C 29.5in /  997.9hPa WNW 15.4mph /  24.8km/h 24.2mph /  38.9km/h 87% 0.01in /  0.3mm
02:47 37.6 °F /  3.1 °C 34.2 °F /  1.2 °C 29.5in /  997.9hPa West 10.5mph /  16.9km/h 19.5mph /  31.4km/h 87% 0.01in /  0.3mm
02:52 37.6 °F /  3.1 °C 33.8 °F /  1.0 °C 29.4in /  996.8hPa WNW 10.7mph /  17.2km/h 19.5mph /  31.4km/h 86% 0in /  0.0mm
02:57 37.6 °F /  3.1 °C 33.8 °F /  1.0 °C 29.4in /  996.8hPa NNW 15.2mph /  24.5km/h 24.2mph /  38.9km/h 86% 0in /  0.0mm
03:02 37.6 °F /  3.1 °C 33.4 °F /  0.8 °C 29.4in /  996.8hPa ESE 11mph /  17.7km/h 24.2mph /  38.9km/h 85% 0.01in /  0.3mm
03:07 37.6 °F /  3.1 °C 33.4 °F /  0.8 °C 29.4in /  996.8hPa West 10.7mph /  17.2km/h 21.3mph /  34.3km/h 85% 0.01in /  0.3mm
03:12 37.6 °F /  3.1 °C 33.4 °F /  0.8 °C 29.4in /  996.8hPa WNW 14.3mph /  23.0km/h 17.7mph /  28.5km/h 85% 0.01in /  0.3mm
03:17 37.6 °F /  3.1 °C 33.4 °F /  0.8 °C 29.4in /  996.8hPa NNW 12.1mph /  19.5km/h 21.5mph /  34.6km/h 85% 0.01in /  0.3mm
03:22 37.6 °F /  3.1 °C 33.4 °F /  0.8 °C 29.5in /  997.9hPa WNW 12.3mph /  19.8km/h 21.5mph /  34.6km/h 85% 0.01in /  0.3mm
03:27 37.2 °F /  2.9 °C 32.9 °F /  0.5 °C 29.5in /  997.9hPa West 11mph /  17.7km/h 18.8mph /  30.2km/h 84% 0.01in /  0.3mm
03:32 37.2 °F /  2.9 °C 32.9 °F /  0.5 °C 29.5in /  997.9hPa WNW 7.8mph /  12.6km/h 18.6mph /  29.9km/h 84% 0.01in /  0.3mm
03:37 37 °F /  2.8 °C 32.7 °F /  0.4 °C 29.5in /  997.9hPa NE 10.1mph /  16.3km/h 15.2mph /  24.5km/h 84% 0.01in /  0.3mm
03:42 37 °F /  2.8 °C 32.7 °F /  0.4 °C 29.5in /  997.9hPa WSW 11mph /  17.7km/h 20.1mph /  32.3km/h 84% 0.01in /  0.3mm
03:47 36.9 °F /  2.7 °C 32.5 °F /  0.3 °C 29.5in /  997.9hPa SE 10.1mph /  16.3km/h 20.1mph /  32.3km/h 84% 0.01in /  0.3mm
03:52 36.9 °F /  2.7 °C 32.5 °F /  0.3 °C 29.5in /  997.9hPa WSW 14.1mph /  22.7km/h 17.7mph /  28.5km/h 84% 0.01in /  0.3mm
03:57 36.9 °F /  2.7 °C 32.5 °F /  0.3 °C 29.5in /  997.9hPa WNW 10.5mph /  16.9km/h 14.3mph /  23.0km/h 84% 0in /  0.0mm
04:02 36.9 °F /  2.7 °C 32.4 °F /  0.2 °C 29.5in /  997.9hPa WNW 14.3mph /  23.0km/h 17.7mph /  28.5km/h 84% 0in /  0.0mm
04:08 36.9 °F /  2.7 °C 32.4 °F /  0.2 °C 29.5in /  997.9hPa SW 8.5mph /  13.7km/h 17.7mph /  28.5km/h 84% 0in /  0.0mm
04:13 36.9 °F /  2.7 °C 32.4 °F /  0.2 °C 29.5in /  997.9hPa NW 10.3mph /  16.6km/h 17.2mph /  27.7km/h 84% 0in /  0.0mm
04:18 36.9 °F /  2.7 °C 32.4 °F /  0.2 °C 29.5in /  997.9hPa West 12.5mph /  20.1km/h 17.9mph /  28.8km/h 84% 0in /  0.0mm
04:23 36.9 °F /  2.7 °C 32.4 °F /  0.2 °C 29.5in /  998.9hPa WNW 9.6mph /  15.4km/h 17.9mph /  28.8km/h 84% 0in /  0.0mm
04:28 36.7 °F /  2.6 °C 32.2 °F /  0.1 °C 29.5in /  998.9hPa WNW 13mph /  20.9km/h 15.4mph /  24.8km/h 84% 0in /  0.0mm
04:33 36.7 °F /  2.6 °C 32.2 °F /  0.1 °C 29.5in /  998.9hPa WNW 10.5mph /  16.9km/h 15.4mph /  24.8km/h 84% 0in /  0.0mm
04:38 36.7 °F /  2.6 °C 32.2 °F /  0.1 °C 29.5in /  998.9hPa NNW 10.1mph /  16.3km/h 17mph /  27.4km/h 84% 0in /  0.0mm
04:43 36.7 °F /  2.6 °C 32.2 °F /  0.1 °C 29.5in /  998.9hPa WNW 4.7mph /  7.6km/h 17mph /  27.4km/h 84% 0in /  0.0mm
04:48 36.3 °F /  2.4 °C 32 °F /  0.0 °C 29.5in /  998.9hPa WNW 6.5mph /  10.5km/h 13.9mph /  22.4km/h 84% 0in /  0.0mm
04:53 36.3 °F /  2.4 °C 32.4 °F /  0.2 °C 29.5in /  998.9hPa WSW 6mph /  9.7km/h 12.3mph /  19.8km/h 85% 0in /  0.0mm
04:58 36.1 °F /  2.3 °C 32.2 °F /  0.1 °C 29.5in /  998.9hPa West 6.5mph /  10.5km/h 13mph /  20.9km/h 85% 0in /  0.0mm
05:03 36.1 °F /  2.3 °C 32.2 °F /  0.1 °C 29.5in /  998.9hPa West 6.5mph /  10.5km/h 14.3mph /  23.0km/h 85% 0in /  0.0mm
05:08 36.1 °F /  2.3 °C 32.2 °F /  0.1 °C 29.5in /  998.9hPa NNW 3.8mph /  6.1km/h 14.3mph /  23.0km/h 85% 0in /  0.0mm
05:13 36.1 °F /  2.3 °C 32.2 °F /  0.1 °C 29.5in /  998.9hPa WNW 4.9mph /  7.9km/h 14.3mph /  23.0km/h 85% 0in /  0.0mm
05:18 36.3 °F /  2.4 °C 32.4 °F /  0.2 °C 29.5in /  998.9hPa WSW 6.5mph /  10.5km/h 13.2mph /  21.2km/h 85% 0in /  0.0mm
05:23 36.3 °F /  2.4 °C 32.4 °F /  0.2 °C 29.5in /  999.9hPa NNW 12.1mph /  19.5km/h 12.1mph /  19.5km/h 85% 0in /  0.0mm
05:28 36.3 °F /  2.4 °C 32.4 °F /  0.2 °C 29.5in /  999.9hPa WSW 7.8mph /  12.6km/h 15.4mph /  24.8km/h 85% 0in /  0.0mm
05:33 36.3 °F /  2.4 °C 32.4 °F /  0.2 °C 29.5in /  999.9hPa West 7.8mph /  12.6km/h 15.4mph /  24.8km/h 85% 0in /  0.0mm
05:38 36.3 °F /  2.4 °C 32.4 °F /  0.2 °C 29.5in /  999.9hPa West 6mph /  9.7km/h 13.2mph /  21.2km/h 85% 0in /  0.0mm
05:43 36.3 °F /  2.4 °C 32.4 °F /  0.2 °C 29.5in /  999.9hPa West 7.8mph /  12.6km/h 13.2mph /  21.2km/h 85% 0in /  0.0mm
05:48 36.3 °F /  2.4 °C 32.4 °F /  0.2 °C 29.5in /  999.9hPa NNW 9.6mph /  15.4km/h 13mph /  20.9km/h 85% 0in /  0.0mm
05:53 36.3 °F /  2.4 °C 32.4 °F /  0.2 °C 29.5in /  999.9hPa NW 9.8mph /  15.8km/h 13.6mph /  21.9km/h 85% 0in /  0.0mm
05:58 36.1 °F /  2.3 °C 32.2 °F /  0.1 °C 29.5in /  999.9hPa WNW 12.5mph /  20.1km/h 13.6mph /  21.9km/h 85% 0in /  0.0mm
06:03 36.3 °F /  2.4 °C 32.4 °F /  0.2 °C 29.5in /  999.9hPa NNW 9.4mph /  15.1km/h 17.7mph /  28.5km/h 85% 0in /  0.0mm
06:08 36.3 °F /  2.4 °C 32.4 °F /  0.2 °C 29.6in /  1000.9hPa WNW 6.3mph /  10.1km/h 17.7mph /  28.5km/h 85% 0in /  0.0mm
06:13 36.3 °F /  2.4 °C 32.4 °F /  0.2 °C 29.6in /  1000.9hPa SSW 6mph /  9.7km/h 13.2mph /  21.2km/h 85% 0in /  0.0mm
06:18 36.1 °F /  2.3 °C 32.2 °F /  0.1 °C 29.6in /  1000.9hPa West 5.8mph /  9.3km/h 10.5mph /  16.9km/h 85% 0in /  0.0mm
06:23 36.1 °F /  2.3 °C 32.2 °F /  0.1 °C 29.5in /  999.9hPa West 4.7mph /  7.6km/h 12.5mph /  20.1km/h 85% 0in /  0.0mm
06:28 36.1 °F /  2.3 °C 32 °F /  0.0 °C 29.5in /  999.9hPa West 2.9mph /  4.7km/h 12.5mph /  20.1km/h 85% 0in /  0.0mm
06:33 36.1 °F /  2.3 °C 32 °F /  0.0 °C 29.5in /  999.9hPa NW 6.5mph /  10.5km/h 11mph /  17.7km/h 85% 0in /  0.0mm
06:38 36 °F /  2.2 °C 32.2 °F /  0.1 °C 29.6in /  1000.9hPa WSW 5.4mph /  8.7km/h 10.5mph /  16.9km/h 86% 0in /  0.0mm
06:43 35.8 °F /  2.1 °C 31.8 °F /  -0.1 °C 29.6in /  1000.9hPa West 5.4mph /  8.7km/h 9.4mph /  15.1km/h 86% 0in /  0.0mm
06:48 35.8 °F /  2.1 °C 31.8 °F /  -0.1 °C 29.6in /  1000.9hPa West 4mph /  6.4km/h 9.4mph /  15.1km/h 86% 0in /  0.0mm
06:53 35.8 °F /  2.1 °C 31.8 °F /  -0.1 °C 29.6in /  1000.9hPa West 4.5mph /  7.2km/h 9.4mph /  15.1km/h 86% 0in /  0.0mm
06:58 35.8 °F /  2.1 °C 31.8 °F /  -0.1 °C 29.6in /  1000.9hPa West 6mph /  9.7km/h 8.7mph /  14.0km/h 86% 0in /  0.0mm
07:03 35.8 °F /  2.1 °C 32.2 °F /  0.1 °C 29.6in /  1000.9hPa West 6mph /  9.7km/h 12.8mph /  20.6km/h 87% 0in /  0.0mm
07:08 35.8 °F /  2.1 °C 32.2 °F /  0.1 °C 29.6in /  1000.9hPa WSW 7.6mph /  12.2km/h 12.8mph /  20.6km/h 87% 0in /  0.0mm
07:13 35.8 °F /  2.1 °C 32.2 °F /  0.1 °C 29.6in /  1000.9hPa West 4.9mph /  7.9km/h 10.7mph /  17.2km/h 87% 0in /  0.0mm
07:18 35.8 °F /  2.1 °C 32.2 °F /  0.1 °C 29.6in /  1000.9hPa NW 10.3mph /  16.6km/h 10.7mph /  17.2km/h 87% 0in /  0.0mm
07:23 35.8 °F /  2.1 °C 32.2 °F /  0.1 °C 29.6in /  1001.9hPa SSW 3.4mph /  5.5km/h 10.7mph /  17.2km/h 87% 0in /  0.0mm
07:28 35.8 °F /  2.1 °C 32.5 °F /  0.3 °C 29.6in /  1001.9hPa WNW 7.6mph /  12.2km/h 10.1mph /  16.3km/h 88% 0in /  0.0mm
07:33 35.8 °F /  2.1 °C 32.5 °F /  0.3 °C 29.6in /  1001.9hPa NW 7.6mph /  12.2km/h 12.1mph /  19.5km/h 88% 0in /  0.0mm
07:38 36 °F /  2.2 °C 32.7 °F /  0.4 °C 29.6in /  1001.9hPa WSW 10.7mph /  17.2km/h 13.4mph /  21.6km/h 88% 0in /  0.0mm
07:43 36 °F /  2.2 °C 32.7 °F /  0.4 °C 29.6in /  1001.9hPa NW 5.8mph /  9.3km/h 13.4mph /  21.6km/h 88% 0in /  0.0mm
07:48 35.8 °F /  2.1 °C 32.5 °F /  0.3 °C 29.6in /  1001.9hPa West 3.6mph /  5.8km/h 10.5mph /  16.9km/h 88% 0in /  0.0mm
07:53 35.8 °F /  2.1 °C 32.5 °F /  0.3 °C 29.6in /  1002.9hPa WNW 6.5mph /  10.5km/h 10.5mph /  16.9km/h 88% 0in /  0.0mm
07:58 36 °F /  2.2 °C 32.7 °F /  0.4 °C 29.6in /  1002.9hPa WNW 6.5mph /  10.5km/h 9.8mph /  15.8km/h 88% 0in /  0.0mm
08:03 36.1 °F /  2.3 °C 32.7 °F /  0.4 °C 29.6in /  1002.9hPa West 8.1mph /  13.0km/h 11.9mph /  19.1km/h 88% 0in /  0.0mm
08:08 36.1 °F /  2.3 °C 33.1 °F /  0.6 °C 29.6in /  1002.9hPa NNW 5.8mph /  9.3km/h 11.9mph /  19.1km/h 89% 0in /  0.0mm
08:13 36.1 °F /  2.3 °C 33.1 °F /  0.6 °C 29.6in /  1002.9hPa WNW 6mph /  9.7km/h 13.2mph /  21.2km/h 88% 0in /  0.0mm
08:18 36.1 °F /  2.3 °C 33.1 °F /  0.6 °C 29.6in /  1002.9hPa West 6.5mph /  10.5km/h 13.2mph /  21.2km/h 88% 0in /  0.0mm
08:23 36.3 °F /  2.4 °C 33.3 °F /  0.7 °C 29.6in /  1002.9hPa West 8.1mph /  13.0km/h 9.8mph /  15.8km/h 88% 0in /  0.0mm
08:28 36.7 °F /  2.6 °C 33.4 °F /  0.8 °C 29.6in /  1002.9hPa West 10.1mph /  16.3km/h 11mph /  17.7km/h 88% 0in /  0.0mm
08:33 36.7 °F /  2.6 °C 33.4 °F /  0.8 °C 29.6in /  1002.9hPa West 6.5mph /  10.5km/h 15.4mph /  24.8km/h 88% 0in /  0.0mm
08:38 36.7 °F /  2.6 °C 33.4 °F /  0.8 °C 29.6in /  1002.9hPa North 8.5mph /  13.7km/h 15.4mph /  24.8km/h 88% 0in /  0.0mm
08:43 36.7 °F /  2.6 °C 33.4 °F /  0.8 °C 29.6in /  1002.9hPa NW 6.5mph /  10.5km/h 11mph /  17.7km/h 88% 0in /  0.0mm
08:48 36.7 °F /  2.6 °C 33.4 °F /  0.8 °C 29.6in /  1002.9hPa WNW 8.5mph /  13.7km/h 10.7mph /  17.2km/h 88% 0in /  0.0mm
08:53 36.7 °F /  2.6 °C 33.4 °F /  0.8 °C 29.6in /  1003.9hPa NW 8.5mph /  13.7km/h 10.7mph /  17.2km/h 88% 0in /  0.0mm
08:58 36.7 °F /  2.6 °C 33.4 °F /  0.8 °C 29.6in /  1003.9hPa West 10.5mph /  16.9km/h 10.5mph /  16.9km/h 88% 0in /  0.0mm
09:03 36.7 °F /  2.6 °C 33.1 °F /  0.6 °C 29.6in /  1003.9hPa WNW 7.6mph /  12.2km/h 10.5mph /  16.9km/h 87% 0in /  0.0mm
09:08 36.3 °F /  2.4 °C 32.9 °F /  0.5 °C 29.6in /  1003.9hPa North 6mph /  9.7km/h 10.5mph /  16.9km/h 87% 0in /  0.0mm
09:13 36.1 °F /  2.3 °C 32.7 °F /  0.4 °C 29.6in /  1003.9hPa WNW 6mph /  9.7km/h 9.8mph /  15.8km/h 87% 0in /  0.0mm
09:18 36.1 °F /  2.3 °C 32.5 °F /  0.3 °C 29.6in /  1003.9hPa West 4.7mph /  7.6km/h 10.1mph /  16.3km/h 87% 0in /  0.0mm
09:23 36 °F /  2.2 °C 32.4 °F /  0.2 °C 29.7in /  1005.0hPa West 4.3mph /  6.9km/h 10.1mph /  16.3km/h 87% 0in /  0.0mm
09:28 35.8 °F /  2.1 °C 32.2 °F /  0.1 °C 29.7in /  1005.0hPa West 8.1mph /  13.0km/h 8.7mph /  14.0km/h 87% 0in /  0.0mm
09:33 35.8 °F /  2.1 °C 32.2 °F /  0.1 °C 29.7in /  1005.0hPa West 7.8mph /  12.6km/h 9.6mph /  15.4km/h 87% 0in /  0.0mm
09:38 35.8 °F /  2.1 °C 32.2 °F /  0.1 °C 29.7in /  1005.0hPa WNW 10.1mph /  16.3km/h 10.3mph /  16.6km/h 87% 0in /  0.0mm
09:43 35.8 °F /  2.1 °C 32.5 °F /  0.3 °C 29.7in /  1005.0hPa West 3.8mph /  6.1km/h 10.7mph /  17.2km/h 88% 0in /  0.0mm
09:48 36 °F /  2.2 °C 32.7 °F /  0.4 °C 29.7in /  1005.0hPa West 6.5mph /  10.5km/h 12.5mph /  20.1km/h 88% 0in /  0.0mm
09:53 36.1 °F /  2.3 °C 32.7 °F /  0.4 °C 29.7in /  1005.0hPa West 9.6mph /  15.4km/h 12.5mph /  20.1km/h 88% 0in /  0.0mm
09:58 36.1 °F /  2.3 °C 33.1 °F /  0.6 °C 29.7in /  1005.0hPa North 6.5mph /  10.5km/h 12.3mph /  19.8km/h 89% 0in /  0.0mm
10:03 36.1 °F /  2.3 °C 33.3 °F /  0.7 °C 29.7in /  1005.0hPa WSW 5.4mph /  8.7km/h 15.2mph /  24.5km/h 89% 0in /  0.0mm
10:08 36.7 °F /  2.6 °C 33.6 °F /  0.9 °C 29.6in /  1003.9hPa West 6.3mph /  10.1km/h 15.2mph /  24.5km/h 89% 0in /  0.0mm
10:13 36.9 °F /  2.7 °C 34 °F /  1.1 °C 29.6in /  1003.9hPa West 7.6mph /  12.2km/h 12.1mph /  19.5km/h 89% 0in /  0.0mm
10:18 37.2 °F /  2.9 °C 34.2 °F /  1.2 °C 29.6in /  1003.9hPa West 0.9mph /  1.4km/h 12.1mph /  19.5km/h 88% 0in /  0.0mm
10:23 37.6 °F /  3.1 °C 34.2 °F /  1.2 °C 29.7in /  1005.0hPa West 5.8mph /  9.3km/h 12.1mph /  19.5km/h 88% 0in /  0.0mm
10:28 37.6 °F /  3.1 °C 34.2 °F /  1.2 °C 29.7in /  1005.0hPa West 4.3mph /  6.9km/h 12.8mph /  20.6km/h 87% 0in /  0.0mm
10:33 37.8 °F /  3.2 °C 34 °F /  1.1 °C 29.7in /  1005.0hPa West 6mph /  9.7km/h 12.8mph /  20.6km/h 86% 0in /  0.0mm
10:38 37.9 °F /  3.3 °C 34 °F /  1.1 °C 29.7in /  1005.0hPa WNW 5.4mph /  8.7km/h 12.3mph /  19.8km/h 85% 0in /  0.0mm
10:43 38.5 °F /  3.6 °C 34.2 °F /  1.2 °C 29.7in /  1005.0hPa WSW 6.3mph /  10.1km/h 12.3mph /  19.8km/h 85% 0in /  0.0mm
10:48 38.5 °F /  3.6 °C 34.2 °F /  1.2 °C 29.7in /  1005.0hPa West 8.1mph /  13.0km/h 10.5mph /  16.9km/h 84% 0in /  0.0mm
10:53 38.7 °F /  3.7 °C 34 °F /  1.1 °C 29.6in /  1003.9hPa West 8.5mph /  13.7km/h 13.2mph /  21.2km/h 83% 0in /  0.0mm
10:58 38.8 °F /  3.8 °C 33.4 °F /  0.8 °C 29.6in /  1003.9hPa WNW 5.8mph /  9.3km/h 17.4mph /  28.0km/h 81% 0in /  0.0mm
11:04 39 °F /  3.9 °C 33.4 °F /  0.8 °C 29.6in /  1003.9hPa WNW 3.1mph /  5.0km/h 17.4mph /  28.0km/h 80% 0in /  0.0mm
11:09 39 °F /  3.9 °C 33.1 °F /  0.6 °C 29.7in /  1005.0hPa West 6.7mph /  10.8km/h 12.8mph /  20.6km/h 79% 0in /  0.0mm
11:14 39.2 °F /  4.0 °C 32.9 °F /  0.5 °C 29.7in /  1005.0hPa WNW 11mph /  17.7km/h 14.1mph /  22.7km/h 78% 0in /  0.0mm
11:19 39.6 °F /  4.2 °C 33.1 °F /  0.6 °C 29.7in /  1005.0hPa NW 8.1mph /  13.0km/h 14.5mph /  23.3km/h 77% 0in /  0.0mm
11:24 39.7 °F /  4.3 °C 32.7 °F /  0.4 °C 29.7in /  1005.0hPa West 12.1mph /  19.5km/h 17.4mph /  28.0km/h 76% 0in /  0.0mm
11:29 40.5 °F /  4.7 °C 33.3 °F /  0.7 °C 29.7in /  1005.0hPa West 10.5mph /  16.9km/h 17.4mph /  28.0km/h 75% 0in /  0.0mm
11:34 40.5 °F /  4.7 °C 33.3 °F /  0.7 °C 29.7in /  1005.0hPa NW 8.1mph /  13.0km/h 13.2mph /  21.2km/h 75% 0in /  0.0mm
11:39 40.1 °F /  4.5 °C 32.2 °F /  0.1 °C 29.7in /  1005.0hPa West 9.8mph /  15.8km/h 15.9mph /  25.6km/h 73% 0in /  0.0mm
11:44 39.4 °F /  4.1 °C 31.1 °F /  -0.5 °C 29.7in /  1005.0hPa West 6.3mph /  10.1km/h 17.7mph /  28.5km/h 72% 0in /  0.0mm
11:49 39 °F /  3.9 °C 30.7 °F /  -0.7 °C 29.7in /  1005.0hPa West 15.2mph /  24.5km/h 17.7mph /  28.5km/h 72% 0in /  0.0mm
11:54 38.8 °F /  3.8 °C 30.6 °F /  -0.8 °C 29.7in /  1005.0hPa West 8.5mph /  13.7km/h 15.4mph /  24.8km/h 72% 0in /  0.0mm
11:59 38.7 °F /  3.7 °C 30.7 °F /  -0.7 °C 29.7in /  1005.0hPa West 8.7mph /  14.0km/h 15.2mph /  24.5km/h 73% 0in /  0.0mm
12:04 38.7 °F /  3.7 °C 31.1 °F /  -0.5 °C 29.7in /  1005.0hPa West 8.1mph /  13.0km/h 14.1mph /  22.7km/h 74% 0in /  0.0mm
12:09 38.7 °F /  3.7 °C 31.1 °F /  -0.5 °C 29.7in /  1005.0hPa West 12.5mph /  20.1km/h 15.4mph /  24.8km/h 74% 0in /  0.0mm
12:14 38.5 °F /  3.6 °C 30.9 °F /  -0.6 °C 29.7in /  1005.0hPa WSW 12.8mph /  20.6km/h 21.3mph /  34.3km/h 74% 0in /  0.0mm
12:19 38.5 °F /  3.6 °C 30.7 °F /  -0.7 °C 29.7in /  1005.0hPa WSW 10.1mph /  16.3km/h 21.3mph /  34.3km/h 74% 0in /  0.0mm
12:24 38.1 °F /  3.4 °C 30.9 °F /  -0.6 °C 29.7in /  1005.0hPa West 10.3mph /  16.6km/h 21.9mph /  35.2km/h 75% 0in /  0.0mm
12:29 37.8 °F /  3.2 °C 30.9 °F /  -0.6 °C 29.7in /  1005.0hPa WNW 9.6mph /  15.4km/h 21.9mph /  35.2km/h 76% 0in /  0.0mm
12:34 37.6 °F /  3.1 °C 31.3 °F /  -0.4 °C 29.7in /  1005.0hPa WNW 10.3mph /  16.6km/h 23.7mph /  38.1km/h 78% 0in /  0.0mm
12:39 36.9 °F /  2.7 °C 31.3 °F /  -0.4 °C 29.7in /  1006.0hPa West 12.8mph /  20.6km/h 23.7mph /  38.1km/h 80% 0in /  0.0mm
12:44 36.1 °F /  2.3 °C 31.3 °F /  -0.4 °C 29.7in /  1006.0hPa West 7.8mph /  12.6km/h 19.9mph /  32.0km/h 82% 0in /  0.0mm
12:49 36.1 °F /  2.3 °C 31.6 °F /  -0.2 °C 29.7in /  1006.0hPa West 7.4mph /  11.9km/h 16.8mph /  27.0km/h 84% 0in /  0.0mm
12:54 36 °F /  2.2 °C 32.2 °F /  0.1 °C 29.7in /  1005.0hPa WSW 10.5mph /  16.9km/h 15.4mph /  24.8km/h 86% 0in /  0.0mm
12:59 36 °F /  2.2 °C 33.1 °F /  0.6 °C 29.7in /  1005.0hPa WNW 12.8mph /  20.6km/h 19.9mph /  32.0km/h 89% 0in /  0.0mm
13:04 36 °F /  2.2 °C 33.4 °F /  0.8 °C 29.7in /  1005.0hPa West 10.7mph /  17.2km/h 19.9mph /  32.0km/h 91% 0in /  0.0mm
13:09 36 °F /  2.2 °C 33.8 °F /  1.0 °C 29.7in /  1005.0hPa West 13.4mph /  21.6km/h 15.7mph /  25.3km/h 92% 0in /  0.0mm
13:14 36 °F /  2.2 °C 34.2 °F /  1.2 °C 29.7in /  1005.0hPa WSW 11mph /  17.7km/h 15.2mph /  24.5km/h 93% 0in /  0.0mm
13:19 36.1 °F /  2.3 °C 34.5 °F /  1.4 °C 29.7in /  1005.0hPa West 12.8mph /  20.6km/h 15.9mph /  25.6km/h 94% 0in /  0.0mm
13:24 36.1 °F /  2.3 °C 34.9 °F /  1.6 °C 29.7in /  1005.0hPa West 10.1mph /  16.3km/h 16.1mph /  25.9km/h 95% 0in /  0.0mm
13:29 36.1 °F /  2.3 °C 34.9 °F /  1.6 °C 29.7in /  1005.0hPa WSW 7.6mph /  12.2km/h 16.1mph /  25.9km/h 95% 0in /  0.0mm
13:34 36.3 °F /  2.4 °C 35.4 °F /  1.9 °C 29.7in /  1005.0hPa WSW 13.2mph /  21.2km/h 17mph /  27.4km/h 96% 0in /  0.0mm
13:39 36.3 °F /  2.4 °C 35.4 °F /  1.9 °C 29.6in /  1003.9hPa West 10.1mph /  16.3km/h 17mph /  27.4km/h 96% 0in /  0.0mm
13:44 36.7 °F /  2.6 °C 35.2 °F /  1.8 °C 29.6in /  1003.9hPa WSW 10.3mph /  16.6km/h 17.4mph /  28.0km/h 95% 0in /  0.0mm
13:49 36.7 °F /  2.6 °C 35.2 °F /  1.8 °C 29.6in /  1003.9hPa West 8.1mph /  13.0km/h 17.4mph /  28.0km/h 95% 0in /  0.0mm
13:54 36.9 °F /  2.7 °C 35.4 °F /  1.9 °C 29.6in /  1003.9hPa WSW 14.8mph /  23.8km/h 19.7mph /  31.7km/h 95% 0in /  0.0mm
13:59 36.7 °F /  2.6 °C 35.1 °F /  1.7 °C 29.6in /  1003.9hPa West 10.7mph /  17.2km/h 19.7mph /  31.7km/h 94% 0in /  0.0mm
14:04 36.7 °F /  2.6 °C 35.1 °F /  1.7 °C 29.6in /  1003.9hPa West 17.2mph /  27.7km/h 19.5mph /  31.4km/h 94% 0in /  0.0mm
14:09 36.7 °F /  2.6 °C 35.1 °F /  1.7 °C 29.6in /  1003.9hPa West 14.1mph /  22.7km/h 21.5mph /  34.6km/h 94% 0in /  0.0mm
14:14 36.7 °F /  2.6 °C 35.2 °F /  1.8 °C 29.6in /  1003.9hPa West 9.4mph /  15.1km/h 21.5mph /  34.6km/h 95% 0in /  0.0mm
14:19 36.9 °F /  2.7 °C 35.4 °F /  1.9 °C 29.6in /  1003.9hPa West 17mph /  27.4km/h 22.8mph /  36.7km/h 95% 0in /  0.0mm
14:24 36.9 °F /  2.7 °C 35.4 °F /  1.9 °C 29.6in /  1003.9hPa West 17.2mph /  27.7km/h 23.9mph /  38.5km/h 95% 0in /  0.0mm
14:29 36.7 °F /  2.6 °C 35.2 °F /  1.8 °C 29.6in /  1003.9hPa West 8.1mph /  13.0km/h 23.9mph /  38.5km/h 95% 0in /  0.0mm
14:34 36.7 °F /  2.6 °C 35.2 °F /  1.8 °C 29.6in /  1003.9hPa West 15.4mph /  24.8km/h 23mph /  37.0km/h 95% 0in /  0.0mm
14:39 36.7 °F /  2.6 °C 35.2 °F /  1.8 °C 29.6in /  1002.9hPa WSW 15.2mph /  24.5km/h 17.9mph /  28.8km/h 95% 0in /  0.0mm
14:44 36.3 °F /  2.4 °C 35.1 °F /  1.7 °C 29.6in /  1002.9hPa West 11.2mph /  18.0km/h 17.9mph /  28.8km/h 95% 0in /  0.0mm
14:49 36.1 °F /  2.3 °C 34.9 °F /  1.6 °C 29.6in /  1002.9hPa West 12.1mph /  19.5km/h 17.9mph /  28.8km/h 95% 0in /  0.0mm
14:54 36.1 °F /  2.3 °C 34.9 °F /  1.6 °C 29.6in /  1002.9hPa West 8.1mph /  13.0km/h 17.2mph /  27.7km/h 95% 0in /  0.0mm
14:59 36 °F /  2.2 °C 34.5 °F /  1.4 °C 29.6in /  1002.9hPa WSW 5.4mph /  8.7km/h 15.4mph /  24.8km/h 95% 0in /  0.0mm
15:04 35.8 °F /  2.1 °C 34.3 °F /  1.3 °C 29.6in /  1002.9hPa West 10.7mph /  17.2km/h 16.3mph /  26.2km/h 95% 0in /  0.0mm
15:09 35.4 °F /  1.9 °C 34.2 °F /  1.2 °C 29.6in /  1003.9hPa West 10.5mph /  16.9km/h 16.3mph /  26.2km/h 95% 0in /  0.0mm
15:14 35.2 °F /  1.8 °C 34.2 °F /  1.2 °C 29.6in /  1003.9hPa WSW 3.4mph /  5.5km/h 14.8mph /  23.8km/h 96% 0in /  0.0mm
15:19 35.1 °F /  1.7 °C 34 °F /  1.1 °C 29.6in /  1003.9hPa West 10.3mph /  16.6km/h 13mph /  20.9km/h 96% 0in /  0.0mm
15:24 34.9 °F /  1.6 °C 33.8 °F /  1.0 °C 29.6in /  1003.9hPa West 11mph /  17.7km/h 13mph /  20.9km/h 96% 0in /  0.0mm
15:29 34.5 °F /  1.4 °C 33.4 °F /  0.8 °C 29.6in /  1003.9hPa West 5.4mph /  8.7km/h 13.2mph /  21.2km/h 96% 0in /  0.0mm
15:34 34.3 °F /  1.3 °C 33.3 °F /  0.7 °C 29.6in /  1003.9hPa WSW 6mph /  9.7km/h 13.2mph /  21.2km/h 96% 0in /  0.0mm
15:39 34.2 °F /  1.2 °C 33.1 °F /  0.6 °C 29.6in /  1003.9hPa West 5.6mph /  9.0km/h 11mph /  17.7km/h 96% 0in /  0.0mm
15:44 34.2 °F /  1.2 °C 33.1 °F /  0.6 °C 29.6in /  1003.9hPa WSW 5.4mph /  8.7km/h 10.1mph /  16.3km/h 96% 0in /  0.0mm
15:49 34.2 °F /  1.2 °C 33.1 °F /  0.6 °C 29.6in /  1003.9hPa West 11mph /  17.7km/h 11.9mph /  19.1km/h 96% 0in /  0.0mm
15:54 34.2 °F /  1.2 °C 33.4 °F /  0.8 °C 29.7in /  1005.0hPa SSW 5.4mph /  8.7km/h 11.9mph /  19.1km/h 97% 0in /  0.0mm
15:59 34.5 °F /  1.4 °C 33.6 °F /  0.9 °C 29.7in /  1005.0hPa West 7.4mph /  11.9km/h 10.7mph /  17.2km/h 97% 0in /  0.0mm
16:04 35.1 °F /  1.7 °C 34.2 °F /  1.2 °C 29.7in /  1005.0hPa WNW 2.9mph /  4.7km/h 9.6mph /  15.4km/h 97% 0in /  0.0mm
16:09 35.8 °F /  2.1 °C 35.2 °F /  1.8 °C 29.7in /  1005.0hPa West 5.4mph /  8.7km/h 10.1mph /  16.3km/h 98% 0in /  0.0mm
16:14 37.6 °F /  3.1 °C 37 °F /  2.8 °C 29.7in /  1005.0hPa NNW 16.6mph /  26.7km/h 17.7mph /  28.5km/h 98% 0in /  0.0mm
16:19 38.5 °F /  3.6 °C 37.8 °F /  3.2 °C 29.7in /  1005.0hPa NW 14.3mph /  23.0km/h 17.7mph /  28.5km/h 98% 0in /  0.0mm
16:24 39 °F /  3.9 °C 38.3 °F /  3.5 °C 29.7in /  1005.0hPa NNW 6mph /  9.7km/h 15.4mph /  24.8km/h 97% 0in /  0.0mm
16:29 39.4 °F /  4.1 °C 38.7 °F /  3.7 °C 29.7in /  1005.0hPa WNW 9.2mph /  14.8km/h 16.3mph /  26.2km/h 97% 0in /  0.0mm
16:34 39.9 °F /  4.4 °C 38.8 °F /  3.8 °C 29.7in /  1005.0hPa NW 5.6mph /  9.0km/h 17.7mph /  28.5km/h 96% 0in /  0.0mm
16:39 40.3 °F /  4.6 °C 39 °F /  3.9 °C 29.7in /  1005.0hPa NNW 10.5mph /  16.9km/h 17.7mph /  28.5km/h 95% 0.11in /  2.8mm
16:44 40.5 °F /  4.7 °C 38.8 °F /  3.8 °C 29.7in /  1005.0hPa NNW 11.9mph /  19.1km/h 17.2mph /  27.7km/h 94% 0.11in /  2.8mm
16:49 40.6 °F /  4.8 °C 38.8 °F /  3.8 °C 29.7in /  1005.0hPa NNW 7.6mph /  12.2km/h 19.9mph /  32.0km/h 93% 0.11in /  2.8mm
16:54 40.6 °F /  4.8 °C 38.1 °F /  3.4 °C 29.7in /  1005.0hPa NNW 12.3mph /  19.8km/h 19.9mph /  32.0km/h 91% 0.11in /  2.8mm
16:59 40.8 °F /  4.9 °C 38.1 °F /  3.4 °C 29.7in /  1005.0hPa NNW 8.7mph /  14.0km/h 15.2mph /  24.5km/h 90% 0.11in /  2.8mm
17:04 41 °F /  5.0 °C 37.8 °F /  3.2 °C 29.7in /  1005.0hPa NW 10.1mph /  16.3km/h 16.8mph /  27.0km/h 88% 0.11in /  2.8mm
17:09 41 °F /  5.0 °C 37.4 °F /  3.0 °C 29.7in /  1005.0hPa NNW 4mph /  6.4km/h 16.8mph /  27.0km/h 87% 0.11in /  2.8mm
17:14 41 °F /  5.0 °C 36.9 °F /  2.7 °C 29.7in /  1005.0hPa North 6mph /  9.7km/h 17.4mph /  28.0km/h 85% 0.11in /  2.8mm
17:19 41.2 °F /  5.1 °C 36.7 °F /  2.6 °C 29.7in /  1005.0hPa NNW 10.3mph /  16.6km/h 17.4mph /  28.0km/h 84% 0.11in /  2.8mm
17:24 41.4 °F /  5.2 °C 36.3 °F /  2.4 °C 29.7in /  1006.0hPa NNW 11mph /  17.7km/h 17mph /  27.4km/h 82% 0.11in /  2.8mm
17:29 41.4 °F /  5.2 °C 36.3 °F /  2.4 °C 29.7in /  1006.0hPa NNE 3.8mph /  6.1km/h 14.8mph /  23.8km/h 82% 0.11in /  2.8mm
17:34 41.4 °F /  5.2 °C 36 °F /  2.2 °C 29.7in /  1006.0hPa West 15.2mph /  24.5km/h 18.1mph /  29.1km/h 81% 0.11in /  2.8mm
17:39 41.4 °F /  5.2 °C 35.6 °F /  2.0 °C 29.7in /  1006.0hPa North 9.4mph /  15.1km/h 18.1mph /  29.1km/h 80% 0in /  0.0mm
17:44 41.4 °F /  5.2 °C 35.2 °F /  1.8 °C 29.7in /  1006.0hPa NW 8.1mph /  13.0km/h 23.7mph /  38.1km/h 79% 0in /  0.0mm
17:49 41.4 °F /  5.2 °C 35.1 °F /  1.7 °C 29.7in /  1006.0hPa North 10.5mph /  16.9km/h 23.7mph /  38.1km/h 78% 0in /  0.0mm
17:55 41.4 °F /  5.2 °C 35.1 °F /  1.7 °C 29.7in /  1007.0hPa North 6.7mph /  10.8km/h 21mph /  33.8km/h 78% 0in /  0.0mm
18:00 41.4 °F /  5.2 °C 34.7 °F /  1.5 °C 29.7in /  1007.0hPa NNW 8.5mph /  13.7km/h 14.5mph /  23.3km/h 77% 0in /  0.0mm
18:05 41.4 °F /  5.2 °C 34.3 °F /  1.3 °C 29.7in /  1007.0hPa NNW 2.7mph /  4.3km/h 21mph /  33.8km/h 76% 0in /  0.0mm
18:10 41.4 °F /  5.2 °C 34.3 °F /  1.3 °C 29.7in /  1007.0hPa NNW 6.3mph /  10.1km/h 21mph /  33.8km/h 76% 0in /  0.0mm
18:15 41.4 °F /  5.2 °C 34.3 °F /  1.3 °C 29.7in /  1007.0hPa West 5.4mph /  8.7km/h 15.2mph /  24.5km/h 76% 0in /  0.0mm
18:20 41.5 °F /  5.3 °C 34.5 °F /  1.4 °C 29.7in /  1007.0hPa NNE 8.5mph /  13.7km/h 15.9mph /  25.6km/h 76% 0in /  0.0mm
18:25 41.5 °F /  5.3 °C 34.5 °F /  1.4 °C 29.7in /  1007.0hPa NNW 8.7mph /  14.0km/h 19mph /  30.6km/h 76% 0in /  0.0mm
18:30 41.5 °F /  5.3 °C 34.2 °F /  1.2 °C 29.7in /  1007.0hPa North 7.6mph /  12.2km/h 19mph /  30.6km/h 75% 0in /  0.0mm
18:35 41.5 °F /  5.3 °C 34.2 °F /  1.2 °C 29.7in /  1007.0hPa North 12.5mph /  20.1km/h 22.4mph /  36.0km/h 75% 0in /  0.0mm
18:40 41.5 °F /  5.3 °C 34.2 °F /  1.2 °C 29.7in /  1007.0hPa NNE 6mph /  9.7km/h 22.4mph /  36.0km/h 75% 0in /  0.0mm
18:45 41.5 °F /  5.3 °C 34 °F /  1.1 °C 29.7in /  1007.0hPa West 5.6mph /  9.0km/h 14.5mph /  23.3km/h 74% 0in /  0.0mm
18:50 41.5 °F /  5.3 °C 34 °F /  1.1 °C 29.7in /  1007.0hPa NW 10.7mph /  17.2km/h 14.5mph /  23.3km/h 74% 0in /  0.0mm
18:55 41.5 °F /  5.3 °C 34 °F /  1.1 °C 29.8in /  1008.0hPa NW 9.4mph /  15.1km/h 14.5mph /  23.3km/h 74% 0in /  0.0mm
19:00 41.5 °F /  5.3 °C 34 °F /  1.1 °C 29.8in /  1008.0hPa NE 4.7mph /  7.6km/h 14.5mph /  23.3km/h 74% 0in /  0.0mm
19:05 41.4 °F /  5.2 °C 33.6 °F /  0.9 °C 29.8in /  1008.0hPa NNE 6.9mph /  11.1km/h 12.8mph /  20.6km/h 74% 0in /  0.0mm
19:10 41.4 °F /  5.2 °C 33.3 °F /  0.7 °C 29.8in /  1008.0hPa NNW 3.6mph /  5.8km/h 15.4mph /  24.8km/h 73% 0in /  0.0mm
19:15 41.4 °F /  5.2 °C 33.3 °F /  0.7 °C 29.8in /  1008.0hPa NNW 6.5mph /  10.5km/h 16.1mph /  25.9km/h 73% 0in /  0.0mm
19:20 41.4 °F /  5.2 °C 33.1 °F /  0.6 °C 29.8in /  1008.0hPa NW 5.8mph /  9.3km/h 16.6mph /  26.7km/h 72% 0in /  0.0mm
19:25 41.4 °F /  5.2 °C 33.3 °F /  0.7 °C 29.8in /  1009.0hPa West 5.6mph /  9.0km/h 16.6mph /  26.7km/h 73% 0in /  0.0mm
19:30 41.2 °F /  5.1 °C 33.3 °F /  0.7 °C 29.8in /  1009.0hPa North 13mph /  20.9km/h 15.4mph /  24.8km/h 73% 0in /  0.0mm
19:35 41.2 °F /  5.1 °C 33.3 °F /  0.7 °C 29.8in /  1009.0hPa NNW 5.8mph /  9.3km/h 13mph /  20.9km/h 73% 0in /  0.0mm
19:40 41.2 °F /  5.1 °C 33.3 °F /  0.7 °C 29.8in /  1009.0hPa ESE 2.5mph /  4.0km/h 14.5mph /  23.3km/h 73% 0in /  0.0mm
19:45 41 °F /  5.0 °C 33.1 °F /  0.6 °C 29.8in /  1009.0hPa West 6.5mph /  10.5km/h 14.5mph /  23.3km/h 73% 0in /  0.0mm
19:50 41 °F /  5.0 °C 33.1 °F /  0.6 °C 29.8in /  1009.0hPa NNE 3.6mph /  5.8km/h 11.9mph /  19.1km/h 73% 0in /  0.0mm
19:55 41 °F /  5.0 °C 33.1 °F /  0.6 °C 29.8in /  1010.0hPa NNW 10.7mph /  17.2km/h 11.9mph /  19.1km/h 73% 0in /  0.0mm
20:00 41 °F /  5.0 °C 32.7 °F /  0.4 °C 29.8in /  1010.0hPa North 5.4mph /  8.7km/h 19.2mph /  30.9km/h 72% 0in /  0.0mm
20:05 41 °F /  5.0 °C 32.7 °F /  0.4 °C 29.8in /  1010.0hPa WNW 8.5mph /  13.7km/h 19.7mph /  31.7km/h 72% 0in /  0.0mm
20:10 41 °F /  5.0 °C 32.7 °F /  0.4 °C 29.8in /  1009.0hPa NNW 5.8mph /  9.3km/h 19.7mph /  31.7km/h 72% 0in /  0.0mm
20:15 41 °F /  5.0 °C 32.4 °F /  0.2 °C 29.8in /  1009.0hPa North 6.7mph /  10.8km/h 15.4mph /  24.8km/h 71% 0in /  0.0mm
20:20 41 °F /  5.0 °C 32.4 °F /  0.2 °C 29.8in /  1009.0hPa NW 3.4mph /  5.5km/h 15.4mph /  24.8km/h 71% 0in /  0.0mm
20:25 41 °F /  5.0 °C 32.4 °F /  0.2 °C 29.8in /  1009.0hPa West 7.4mph /  11.9km/h 11.9mph /  19.1km/h 71% 0in /  0.0mm
20:30 41 °F /  5.0 °C 32.4 °F /  0.2 °C 29.8in /  1009.0hPa NNW 7.6mph /  12.2km/h 13.2mph /  21.2km/h 71% 0in /  0.0mm
20:35 41 °F /  5.0 °C 32.4 °F /  0.2 °C 29.8in /  1009.0hPa NNW 5.6mph /  9.0km/h 13.2mph /  21.2km/h 71% 0in /  0.0mm
20:40 41 °F /  5.0 °C 32 °F /  0.0 °C 29.8in /  1009.0hPa SSW 1.6mph /  2.6km/h 14.5mph /  23.3km/h 70% 0in /  0.0mm
20:45 41 °F /  5.0 °C 32 °F /  0.0 °C 29.8in /  1009.0hPa NNW 6.9mph /  11.1km/h 20.8mph /  33.5km/h 70% 0in /  0.0mm
20:50 40.8 °F /  4.9 °C 31.5 °F /  -0.3 °C 29.8in /  1009.0hPa WNW 17.7mph /  28.5km/h 23.3mph /  37.5km/h 69% 0in /  0.0mm
20:55 40.8 °F /  4.9 °C 31.5 °F /  -0.3 °C 29.8in /  1010.0hPa WNW 8.5mph /  13.7km/h 23.3mph /  37.5km/h 69% 0in /  0.0mm
21:00 40.8 °F /  4.9 °C 31.5 °F /  -0.3 °C 29.8in /  1010.0hPa WNW 4mph /  6.4km/h 17.7mph /  28.5km/h 69% 0in /  0.0mm
21:05 40.8 °F /  4.9 °C 31.5 °F /  -0.3 °C 29.8in /  1010.0hPa WNW 3.6mph /  5.8km/h 13.9mph /  22.4km/h 69% 0in /  0.0mm
21:10 40.6 °F /  4.8 °C 31.3 °F /  -0.4 °C 29.8in /  1010.0hPa NNW 3.8mph /  6.1km/h 13.9mph /  22.4km/h 69% 0in /  0.0mm
21:15 40.6 °F /  4.8 °C 31.6 °F /  -0.2 °C 29.8in /  1010.0hPa WNW 5.8mph /  9.3km/h 18.8mph /  30.2km/h 70% 0in /  0.0mm
21:20 40.6 °F /  4.8 °C 31.6 °F /  -0.2 °C 29.8in /  1010.0hPa NNW 8.5mph /  13.7km/h 18.8mph /  30.2km/h 70% 0in /  0.0mm
21:25 40.6 °F /  4.8 °C 31.6 °F /  -0.2 °C 29.8in /  1010.0hPa NNE 3.8mph /  6.1km/h 15.2mph /  24.5km/h 70% 0in /  0.0mm
21:30 40.6 °F /  4.8 °C 31.6 °F /  -0.2 °C 29.8in /  1010.0hPa WNW 6.3mph /  10.1km/h 15.2mph /  24.5km/h 70% 0in /  0.0mm
21:35 40.5 °F /  4.7 °C 31.8 °F /  -0.1 °C 29.8in /  1010.0hPa WNW 6.3mph /  10.1km/h 8.7mph /  14.0km/h 71% 0in /  0.0mm
21:40 40.6 °F /  4.8 °C 31.6 °F /  -0.2 °C 29.8in /  1010.0hPa WSW 6.5mph /  10.5km/h 10.1mph /  16.3km/h 70% 0in /  0.0mm
21:45 40.5 °F /  4.7 °C 31.8 °F /  -0.1 °C 29.8in /  1010.0hPa North 3.8mph /  6.1km/h 10.1mph /  16.3km/h 71% 0in /  0.0mm
21:50 40.5 °F /  4.7 °C 31.5 °F /  -0.3 °C 29.8in /  1010.0hPa NNW 4.5mph /  7.2km/h 13mph /  20.9km/h 70% 0in /  0.0mm
21:55 40.5 °F /  4.7 °C 31.5 °F /  -0.3 °C 29.9in /  1011.1hPa WSW 6mph /  9.7km/h 13mph /  20.9km/h 70% 0in /  0.0mm
22:00 40.5 °F /  4.7 °C 31.5 °F /  -0.3 °C 29.9in /  1011.1hPa NW 5.4mph /  8.7km/h 8.7mph /  14.0km/h 70% 0in /  0.0mm
22:05 40.5 °F /  4.7 °C 31.5 °F /  -0.3 °C 29.9in /  1011.1hPa NNW 7.4mph /  11.9km/h 12.3mph /  19.8km/h 70% 0in /  0.0mm
22:10 40.5 °F /  4.7 °C 31.5 °F /  -0.3 °C 29.9in /  1011.1hPa WNW 6.3mph /  10.1km/h 14.5mph /  23.3km/h 70% 0in /  0.0mm
22:16 40.5 °F /  4.7 °C 31.5 °F /  -0.3 °C 29.9in /  1011.1hPa NW 9.8mph /  15.8km/h 14.5mph /  23.3km/h 70% 0in /  0.0mm
22:21 40.5 °F /  4.7 °C 31.5 °F /  -0.3 °C 29.9in /  1011.1hPa NW 7.8mph /  12.6km/h 12.5mph /  20.1km/h 70% 0in /  0.0mm
22:26 40.5 °F /  4.7 °C 31.5 °F /  -0.3 °C 29.9in /  1011.1hPa NNW 5.6mph /  9.0km/h 12.5mph /  20.1km/h 70% 0in /  0.0mm
22:31 40.5 °F /  4.7 °C 31.5 °F /  -0.3 °C 29.9in /  1011.1hPa West 6.5mph /  10.5km/h 12.1mph /  19.5km/h 70% 0in /  0.0mm
22:36 40.3 °F /  4.6 °C 31.3 °F /  -0.4 °C 29.9in /  1011.1hPa ENE 3.8mph /  6.1km/h 12.3mph /  19.8km/h 70% 0in /  0.0mm
22:41 40.3 °F /  4.6 °C 31.3 °F /  -0.4 °C 29.9in /  1011.1hPa West 7.8mph /  12.6km/h 13.2mph /  21.2km/h 70% 0in /  0.0mm
22:46 40.1 °F /  4.5 °C 31.1 °F /  -0.5 °C 29.9in /  1011.1hPa North 4mph /  6.4km/h 13.2mph /  21.2km/h 70% 0in /  0.0mm
22:51 40.1 °F /  4.5 °C 31.1 °F /  -0.5 °C 29.9in /  1011.1hPa NNW 3.6mph /  5.8km/h 10.1mph /  16.3km/h 70% 0in /  0.0mm
22:56 40.1 °F /  4.5 °C 31.1 °F /  -0.5 °C 29.9in /  1012.1hPa NNW 6.9mph /  11.1km/h 9.8mph /  15.8km/h 70% 0in /  0.0mm
23:01 40.1 °F /  4.5 °C 31.1 °F /  -0.5 °C 29.9in /  1012.1hPa WNW 6mph /  9.7km/h 9.8mph /  15.8km/h 70% 0in /  0.0mm
23:06 40.1 °F /  4.5 °C 31.1 °F /  -0.5 °C 29.9in /  1012.1hPa NNW 7.6mph /  12.2km/h 9.8mph /  15.8km/h 70% 0in /  0.0mm
23:11 40.1 °F /  4.5 °C 31.1 °F /  -0.5 °C 29.9in /  1011.1hPa West 3.8mph /  6.1km/h 13.2mph /  21.2km/h 70% 0in /  0.0mm
23:16 40.1 °F /  4.5 °C 31.1 °F /  -0.5 °C 29.9in /  1011.1hPa NNW 3.1mph /  5.0km/h 13.2mph /  21.2km/h 70% 0in /  0.0mm
23:21 40.1 °F /  4.5 °C 31.1 °F /  -0.5 °C 29.9in /  1011.1hPa North 4.7mph /  7.6km/h 11.9mph /  19.1km/h 70% 0in /  0.0mm
23:26 40.1 °F /  4.5 °C 31.1 °F /  -0.5 °C 29.8in /  1010.0hPa NNW 5.4mph /  8.7km/h 11.9mph /  19.1km/h 70% 0in /  0.0mm
23:31 40.1 °F /  4.5 °C 31.1 °F /  -0.5 °C 29.8in /  1010.0hPa NNW 5.4mph /  8.7km/h 13mph /  20.9km/h 70% 0in /  0.0mm
23:36 40.1 °F /  4.5 °C 31.1 °F /  -0.5 °C 29.8in /  1010.0hPa North 3.1mph /  5.0km/h 13mph /  20.9km/h 70% 0in /  0.0mm
23:41 39.9 °F /  4.4 °C 30.9 °F /  -0.6 °C 29.9in /  1011.1hPa NE 5.8mph /  9.3km/h 10.7mph /  17.2km/h 70% 0in /  0.0mm
23:46 39.9 °F /  4.4 °C 30.9 °F /  -0.6 °C 29.9in /  1011.1hPa North 7.4mph /  11.9km/h 12.1mph /  19.5km/h 70% 0in /  0.0mm
23:51 39.9 °F /  4.4 °C 30.9 °F /  -0.6 °C 29.9in /  1011.1hPa West 4.7mph /  7.6km/h 13.2mph /  21.2km/h 70% 0in /  0.0mm
23:56 39.9 °F /  4.4 °C 30.6 °F /  -0.8 °C 29.9in /  1011.1hPa WNW 7.8mph /  12.6km/h 17.7mph /  28.5km/h 69% 0in /  0.0mm
Données Historique de Météo Turbie

Mise a jour : 24/05/2018 23:20:13
Généré par Cumulus 1.9.4 (1099)